createdAt,value
2022-10-17T00:01:10.714Z,101713.27
2022-10-17T00:03:39.971Z,101714.14
2022-10-17T00:06:13.539Z,101716.10
2022-10-17T00:08:43.065Z,101719.63
2022-10-17T00:11:19.599Z,101715.63
2022-10-17T00:13:51.962Z,101714.73
2022-10-17T00:16:25.298Z,101726.70
2022-10-17T00:18:53.044Z,101736.77
2022-10-17T00:21:22.829Z,101736.48
2022-10-17T00:23:50.902Z,101730.58
2022-10-17T00:26:19.175Z,101729.77
2022-10-17T00:28:52.321Z,101732.80
2022-10-17T00:31:22.937Z,101729.65
2022-10-17T00:33:51.858Z,101730.40
2022-10-17T00:36:25.398Z,101739.26
2022-10-17T00:38:57.754Z,101739.52
2022-10-17T00:41:29.885Z,101738.09
2022-10-17T00:44:04.225Z,101732.02
2022-10-17T00:46:37.377Z,101732.97
2022-10-17T00:49:10.917Z,101726.33
2022-10-17T00:51:44.219Z,101716.63
2022-10-17T00:54:14.745Z,101717.55
2022-10-17T00:56:43.912Z,101715.83
2022-10-17T00:59:13.365Z,101712.86
2022-10-17T01:01:43.445Z,101714.98
2022-10-17T01:04:11.213Z,101718.73
2022-10-17T01:06:40.404Z,101721.11
2022-10-17T01:09:08.854Z,101720.50
2022-10-17T01:11:50.822Z,101710.95
2022-10-17T01:14:43.805Z,101702.36
2022-10-17T01:17:26.940Z,101718.84
2022-10-17T01:19:57.705Z,101729.80
2022-10-17T01:22:39.077Z,101734.63
2022-10-17T01:25:46.077Z,101739.06
2022-10-17T01:28:16.856Z,101746.78
2022-10-17T01:31:12.173Z,101756.51
2022-10-17T01:33:56.013Z,101758.91
2022-10-17T01:36:37.771Z,101750.34
2022-10-17T01:39:15.976Z,101750.73
2022-10-17T01:41:52.211Z,101744.88
2022-10-17T01:44:46.011Z,101744.73
2022-10-17T01:47:19.456Z,101738.25
2022-10-17T01:49:51.498Z,101730.02
2022-10-17T01:52:24.048Z,101737.38
2022-10-17T01:55:23.829Z,101739.82
2022-10-17T01:57:56.256Z,101733.39
2022-10-17T02:00:27.557Z,101733.17
2022-10-17T02:03:04.113Z,101735.41
2022-10-17T02:05:37.589Z,101734.43
2022-10-17T02:08:06.423Z,101735.60
2022-10-17T02:10:59.365Z,101734.73
2022-10-17T02:13:53.211Z,101733.92
2022-10-17T02:16:59.927Z,101732.67
2022-10-17T02:19:55.083Z,101728.83
2022-10-17T02:22:35.436Z,101728.87
2022-10-17T02:25:13.304Z,101733.89
2022-10-17T02:28:08.017Z,101742.70
2022-10-17T02:30:43.491Z,101751.12
2022-10-17T02:33:21.114Z,101755.81
2022-10-17T02:35:54.009Z,101763.51
2022-10-17T02:38:24.801Z,101760.76
2022-10-17T02:40:54.579Z,101758.92
2022-10-17T02:43:23.810Z,101755.44
2022-10-17T02:45:52.925Z,101752.64
2022-10-17T02:48:31.429Z,101753.58
2022-10-17T02:51:09.719Z,101758.38
2022-10-17T02:53:53.400Z,101758.55
2022-10-17T02:56:22.332Z,101755.96
2022-10-17T02:59:00.007Z,101755.77
2022-10-17T03:01:30.139Z,101758.21
2022-10-17T03:04:06.350Z,101762.53
2022-10-17T03:06:34.286Z,101765.64
2022-10-17T03:09:02.270Z,101763.40
2022-10-17T03:11:30.510Z,101759.77
2022-10-17T03:13:58.281Z,101765.95
2022-10-17T03:16:26.333Z,101762.09
2022-10-17T03:18:54.263Z,101764.92
2022-10-17T03:21:22.129Z,101767.34
2022-10-17T03:23:50.010Z,101762.78
2022-10-17T03:26:19.079Z,101757.67
2022-10-17T03:28:48.559Z,101770.26
2022-10-17T03:31:18.733Z,101771.58
2022-10-17T03:33:47.151Z,101774.05
2022-10-17T03:36:19.402Z,101769.54
2022-10-17T03:38:48.628Z,101767.03
2022-10-17T03:41:17.467Z,101770.46
2022-10-17T03:43:45.551Z,101771.43
2022-10-17T03:46:15.380Z,101778.98
2022-10-17T03:48:44.168Z,101784.31
2022-10-17T03:51:12.221Z,101785.70
2022-10-17T03:53:48.876Z,101786.17
2022-10-17T03:56:19.385Z,101789.71
2022-10-17T03:58:52.903Z,101793.10
2022-10-17T04:01:21.865Z,101800.59
2022-10-17T04:03:52.231Z,101795.59
2022-10-17T04:06:21.121Z,101795.04
2022-10-17T04:08:49.851Z,101796.06
2022-10-17T04:11:23.219Z,101793.59
2022-10-17T04:13:56.440Z,101786.94
2022-10-17T04:16:25.203Z,101783.86
2022-10-17T04:19:01.782Z,101784.74
2022-10-17T04:21:32.936Z,101781.58
2022-10-17T04:24:05.241Z,101783.63
2022-10-17T04:27:05.335Z,101782.54
2022-10-17T04:29:34.892Z,101789.20
2022-10-17T04:32:09.906Z,101790.03
2022-10-17T04:34:49.734Z,101791.42
2022-10-17T04:37:18.252Z,101787.46
2022-10-17T04:39:46.805Z,101789.47
2022-10-17T04:42:15.157Z,101786.84
2022-10-17T04:44:43.612Z,101785.27
2022-10-17T04:47:12.875Z,101788.06
2022-10-17T04:52:15.082Z,101788.58
2022-10-17T04:54:49.565Z,101788.68
2022-10-17T04:57:20.149Z,101789.63
2022-10-17T05:00:05.832Z,101791.21
2022-10-17T05:02:54.628Z,101789.98
2022-10-17T05:05:23.357Z,101794.29
2022-10-17T05:07:52.663Z,101795.86
2022-10-17T05:10:24.234Z,101800.80
2022-10-17T05:12:53.359Z,101804.37
2022-10-17T05:15:23.976Z,101807.87
2022-10-17T05:17:57.000Z,101808.77
2022-10-17T05:20:26.226Z,101808.33
2022-10-17T05:22:54.607Z,101806.96
2022-10-17T05:25:24.358Z,101807.41
2022-10-17T05:27:52.171Z,101812.80
2022-10-17T05:30:20.077Z,101811.27
2022-10-17T05:32:52.812Z,101814.11
2022-10-17T05:35:22.218Z,101812.28
2022-10-17T05:37:50.864Z,101813.52
2022-10-17T05:40:18.909Z,101815.02
2022-10-17T05:42:48.485Z,101823.00
2022-10-17T05:45:17.016Z,101827.48
2022-10-17T05:47:45.050Z,101828.55
2022-10-17T05:50:13.334Z,101827.27
2022-10-17T05:53:00.852Z,101831.60
2022-10-17T05:55:29.055Z,101835.72
2022-10-17T05:58:00.234Z,101836.38
2022-10-17T06:00:29.938Z,101838.56
2022-10-17T06:02:58.397Z,101842.13
2022-10-17T06:05:26.767Z,101842.65
2022-10-17T06:07:58.176Z,101848.18
2022-10-17T06:10:29.679Z,101848.80
2022-10-17T06:12:57.634Z,101853.98
2022-10-17T06:15:26.690Z,101854.78
2022-10-17T06:18:04.481Z,101861.44
2022-10-17T06:20:32.245Z,101859.66
2022-10-17T06:23:00.305Z,101859.58
2022-10-17T06:25:48.595Z,101865.42
2022-10-17T06:28:16.441Z,101867.83
2022-10-17T06:30:44.126Z,101874.06
2022-10-17T06:33:12.803Z,101873.66
2022-10-17T06:35:40.894Z,101877.63
2022-10-17T06:38:08.738Z,101880.95
2022-10-17T06:40:37.570Z,101882.61
2022-10-17T06:43:05.303Z,101883.17
2022-10-17T06:46:05.578Z,101884.16
2022-10-17T06:48:42.989Z,101887.90
2022-10-17T06:51:20.305Z,101885.02
2022-10-17T06:53:51.293Z,101888.80
2022-10-17T06:56:48.964Z,101887.27
2022-10-17T06:59:16.879Z,101892.47
2022-10-17T07:01:52.496Z,101891.45
2022-10-17T07:04:20.411Z,101889.00
2022-10-17T07:06:48.514Z,101891.85
2022-10-17T07:09:19.733Z,101891.17
2022-10-17T07:11:48.036Z,101892.20
2022-10-17T07:14:19.095Z,101890.65
2022-10-17T07:16:49.996Z,101889.70
2022-10-17T07:19:23.646Z,101891.64
2022-10-17T07:21:51.952Z,101892.13
2022-10-17T07:24:20.298Z,101891.73
2022-10-17T07:27:03.952Z,101894.03
2022-10-17T07:29:32.055Z,101889.33
2022-10-17T07:32:10.347Z,101891.71
2022-10-17T07:34:38.120Z,101894.77
2022-10-17T07:37:07.536Z,101892.25
2022-10-17T07:39:35.758Z,101894.44
2022-10-17T07:42:10.491Z,101895.02
2022-10-17T07:44:38.289Z,101896.45
2022-10-17T07:47:06.181Z,101897.55
2022-10-17T07:49:42.482Z,101898.27
2022-10-17T07:52:12.253Z,101895.86
2022-10-17T07:54:40.978Z,101891.44
2022-10-17T07:57:09.172Z,101887.39
2022-10-17T07:59:38.290Z,101886.14
2022-10-17T08:02:08.206Z,101883.54
2022-10-17T08:04:36.606Z,101881.80
2022-10-17T08:07:20.992Z,101878.98
2022-10-17T08:09:52.324Z,101881.17
2022-10-17T08:12:20.725Z,101876.70
2022-10-17T08:14:48.715Z,101873.19
2022-10-17T08:17:16.506Z,101873.46
2022-10-17T08:19:44.320Z,101875.09
2022-10-17T08:22:12.220Z,101874.93
2022-10-17T08:24:39.947Z,101881.34
2022-10-17T08:27:11.518Z,101880.45
2022-10-17T08:29:40.585Z,101880.54
2022-10-17T08:32:10.216Z,101878.99
2022-10-17T08:34:38.437Z,101874.41
2022-10-17T08:37:06.211Z,101870.33
2022-10-17T08:39:34.219Z,101871.49
2022-10-17T08:42:25.690Z,101873.46
2022-10-17T08:44:59.602Z,101875.14
2022-10-17T08:47:36.100Z,101875.24
2022-10-17T08:50:07.142Z,101879.20
2022-10-17T08:53:03.251Z,101881.77
2022-10-17T08:55:39.995Z,101872.17
2022-10-17T08:58:32.567Z,101870.67
2022-10-17T09:01:25.669Z,101869.28
2022-10-17T09:04:24.091Z,101867.63
2022-10-17T09:07:13.849Z,101868.62
2022-10-17T09:09:52.433Z,101872.80
2022-10-17T09:12:22.855Z,101866.66
2022-10-17T09:15:12.234Z,101859.81
2022-10-17T09:17:49.780Z,101866.42
2022-10-17T09:20:39.341Z,101865.36
2022-10-17T09:23:21.039Z,101865.42
2022-10-17T09:25:54.994Z,101866.23
2022-10-17T09:28:30.688Z,101868.93
2022-10-17T09:31:03.592Z,101867.64
2022-10-17T09:33:53.742Z,101862.09
2022-10-17T09:36:29.599Z,101859.54
2022-10-17T09:39:01.240Z,101861.85
2022-10-17T09:41:46.558Z,101862.53
2022-10-17T09:44:35.910Z,101861.88
2022-10-17T09:47:21.376Z,101863.76
2022-10-17T09:49:50.361Z,101860.77
2022-10-17T09:52:29.799Z,101862.76
2022-10-17T09:55:05.472Z,101865.14
2022-10-17T09:57:52.535Z,101858.23
2022-10-17T10:00:28.387Z,101855.13
2022-10-17T10:03:18.547Z,101859.36
2022-10-17T10:06:00.103Z,101861.30
2022-10-17T10:08:37.191Z,101859.86
2022-10-17T10:11:13.463Z,101856.89
2022-10-17T10:13:43.208Z,101856.14
2022-10-17T10:16:31.321Z,101851.13
2022-10-17T10:18:59.458Z,101850.27
2022-10-17T10:21:28.481Z,101847.67
2022-10-17T10:23:59.378Z,101841.59
2022-10-17T10:26:39.251Z,101839.98
2022-10-17T10:29:21.652Z,101842.95
2022-10-17T10:31:51.013Z,101838.67
2022-10-17T10:34:27.305Z,101843.90
2022-10-17T10:37:02.850Z,101837.88
2022-10-17T10:39:43.127Z,101835.95
2022-10-17T10:42:32.037Z,101832.67
2022-10-17T10:45:42.859Z,101833.20
2022-10-17T10:48:27.679Z,101830.19
2022-10-17T10:51:12.661Z,101828.42
2022-10-17T10:53:49.746Z,101835.71
2022-10-17T10:56:36.258Z,101837.92
2022-10-17T10:59:26.558Z,101835.09
2022-10-17T11:02:10.987Z,101829.11
2022-10-17T11:04:48.505Z,101825.66
2022-10-17T11:07:23.885Z,101823.65
2022-10-17T11:10:08.292Z,101818.58
2022-10-17T11:12:51.880Z,101821.44
2022-10-17T11:15:47.950Z,101820.15
2022-10-17T11:18:26.795Z,101815.53
2022-10-17T11:21:16.661Z,101815.76
2022-10-17T11:24:00.853Z,101809.07
2022-10-17T11:26:39.123Z,101810.15
2022-10-17T11:29:09.069Z,101811.96
2022-10-17T11:31:41.737Z,101807.67
2022-10-17T11:34:21.092Z,101809.58
2022-10-17T11:36:55.154Z,101802.98
2022-10-17T11:39:29.459Z,101801.08
2022-10-17T11:41:58.917Z,101796.52
2022-10-17T11:44:40.588Z,101796.48
2022-10-17T11:47:35.565Z,101793.14
2022-10-17T11:53:20.790Z,101787.17
2022-10-17T11:55:52.884Z,101790.82
2022-10-17T11:58:59.562Z,101791.43
2022-10-17T12:01:40.447Z,101788.59
2022-10-17T12:04:24.273Z,101781.67
2022-10-17T12:07:19.243Z,101783.17
2022-10-17T12:09:47.187Z,101777.73
2022-10-17T12:12:33.530Z,101782.41
2022-10-17T12:15:14.439Z,101782.35
2022-10-17T12:17:45.513Z,101781.45
2022-10-17T12:20:27.585Z,101773.58
2022-10-17T12:22:59.033Z,101768.95
2022-10-17T12:25:34.372Z,101769.02
2022-10-17T12:28:14.184Z,101768.38
2022-10-17T12:30:59.923Z,101768.44
2022-10-17T12:33:51.884Z,101766.34
2022-10-17T12:36:22.075Z,101765.33
2022-10-17T12:39:16.239Z,101764.89
2022-10-17T12:41:46.703Z,101764.70
2022-10-17T12:44:21.553Z,101760.54
2022-10-17T12:47:04.183Z,101764.95
2022-10-17T12:49:39.895Z,101763.70
2022-10-17T12:52:26.794Z,101765.58
2022-10-17T12:55:14.039Z,101765.27
2022-10-17T12:57:57.012Z,101764.91
2022-10-17T13:00:37.465Z,101765.48
2022-10-17T13:03:18.985Z,101766.59
2022-10-17T13:05:53.670Z,101760.53
2022-10-17T13:08:28.043Z,101754.25
2022-10-17T13:10:57.884Z,101761.52
2022-10-17T13:13:47.771Z,101760.05
2022-10-17T13:16:37.302Z,101758.66
2022-10-17T13:19:17.529Z,101754.95
2022-10-17T13:21:59.748Z,101747.92
2022-10-17T13:24:41.441Z,101754.86
2022-10-17T13:27:30.557Z,101753.02
2022-10-17T13:30:18.202Z,101742.63
2022-10-17T13:32:46.938Z,101737.25
2022-10-17T13:35:31.711Z,101732.96
2022-10-17T13:38:13.844Z,101731.89
2022-10-17T13:40:50.052Z,101728.55
2022-10-17T13:43:24.633Z,101730.55
2022-10-17T13:46:02.254Z,101727.72
2022-10-17T13:48:38.944Z,101734.39
2022-10-17T13:51:10.491Z,101732.56
2022-10-17T13:53:44.067Z,101735.67
2022-10-17T13:56:29.829Z,101729.39
2022-10-17T13:59:20.393Z,101726.73
2022-10-17T14:01:50.305Z,101724.20
2022-10-17T14:05:15.637Z,101719.85
2022-10-17T14:08:10.007Z,101717.38
2022-10-17T14:10:39.173Z,101719.02
2022-10-17T14:13:21.591Z,101717.27
2022-10-17T14:15:51.283Z,101721.81
2022-10-17T14:18:26.653Z,101718.23
2022-10-17T14:21:33.964Z,101717.68
2022-10-17T14:23:44.369Z,101719.89
2022-10-17T14:26:17.428Z,101723.02
2022-10-17T14:28:48.636Z,101722.36
2022-10-17T14:31:22.266Z,101724.87
2022-10-17T14:33:52.282Z,101723.77
2022-10-17T14:36:30.651Z,101727.05
2022-10-17T14:38:59.331Z,101724.25
2022-10-17T14:41:47.686Z,101719.84
2022-10-17T14:44:36.407Z,101723.65
2022-10-17T14:47:38.105Z,101724.48
2022-10-17T14:50:12.856Z,101724.10
2022-10-17T14:52:41.176Z,101724.23
2022-10-17T14:55:23.398Z,101724.05
2022-10-17T14:57:51.690Z,101725.23
2022-10-17T15:00:22.584Z,101720.77
2022-10-17T15:02:52.364Z,101719.98
2022-10-17T15:05:23.320Z,101719.49
2022-10-17T15:07:51.839Z,101722.80
2022-10-17T15:10:35.232Z,101723.21
2022-10-17T15:15:52.863Z,101724.61
2022-10-17T15:18:21.594Z,101718.18
2022-10-17T15:20:55.460Z,101718.52
2022-10-17T15:23:33.448Z,101712.67
2022-10-17T15:26:01.926Z,101713.13
2022-10-17T15:28:30.979Z,101708.92
2022-10-17T15:30:59.260Z,101710.92
2022-10-17T15:33:27.616Z,101717.70
2022-10-17T15:35:55.730Z,101718.42
2022-10-17T15:38:23.894Z,101716.75
2022-10-17T15:40:52.376Z,101716.70
2022-10-17T15:43:25.257Z,101711.09
2022-10-17T15:45:54.002Z,101711.34
2022-10-17T15:48:29.140Z,101716.05
2022-10-17T15:50:58.434Z,101720.65
2022-10-17T15:53:27.012Z,101720.61
2022-10-17T15:55:56.116Z,101720.95
2022-10-17T15:58:28.839Z,101720.31
2022-10-17T16:00:57.873Z,101715.14
2022-10-17T16:03:28.517Z,101713.83
2022-10-17T16:05:57.565Z,101719.00
2022-10-17T16:08:28.479Z,101719.84
2022-10-17T16:10:58.280Z,101719.18
2022-10-17T16:13:28.403Z,101717.95
2022-10-17T16:15:57.537Z,101715.34
2022-10-17T16:18:25.624Z,101719.54
2022-10-17T16:20:53.694Z,101714.11
2022-10-17T16:23:21.966Z,101714.88
2022-10-17T16:25:50.417Z,101716.70
2022-10-17T16:28:18.644Z,101716.92
2022-10-17T16:30:48.641Z,101719.30
2022-10-17T16:33:17.474Z,101721.38
2022-10-17T16:35:47.849Z,101721.04
2022-10-17T16:38:19.498Z,101720.45
2022-10-17T16:40:49.395Z,101724.09
2022-10-17T16:43:17.693Z,101724.67
2022-10-17T16:45:45.982Z,101726.97
2022-10-17T16:48:14.065Z,101721.58
2022-10-17T16:50:42.700Z,101720.31
2022-10-17T16:53:11.320Z,101722.60
2022-10-17T16:55:40.183Z,101720.28
2022-10-17T16:58:08.851Z,101719.75
2022-10-17T17:00:40.129Z,101715.67
2022-10-17T17:03:10.232Z,101720.56
2022-10-17T17:05:38.996Z,101722.21
2022-10-17T17:08:10.360Z,101724.04
2022-10-17T17:10:45.944Z,101721.40
2022-10-17T17:13:14.448Z,101718.58
2022-10-17T17:18:16.768Z,101717.02
2022-10-17T17:20:46.411Z,101716.23
2022-10-17T17:23:19.386Z,101721.52
2022-10-17T17:25:50.810Z,101727.94
2022-10-17T17:28:19.331Z,101727.61
2022-10-17T17:30:47.689Z,101727.46
2022-10-17T17:33:16.440Z,101728.27
2022-10-17T17:35:47.928Z,101728.06
2022-10-17T17:38:17.869Z,101728.94
2022-10-17T17:40:50.865Z,101728.91
2022-10-17T17:43:20.203Z,101725.90
2022-10-17T17:45:49.365Z,101729.38
2022-10-17T17:48:18.761Z,101729.41
2022-10-17T17:50:48.966Z,101731.11
2022-10-17T17:53:20.169Z,101728.55
2022-10-17T17:56:01.168Z,101731.43
2022-10-17T17:58:32.063Z,101728.73
2022-10-17T18:01:02.221Z,101726.52
2022-10-17T18:03:32.627Z,101726.98
2022-10-17T18:06:01.444Z,101725.54
2022-10-17T18:08:31.388Z,101727.83
2022-10-17T18:11:09.668Z,101729.80
2022-10-17T18:13:43.707Z,101726.13
2022-10-17T18:16:14.710Z,101724.92
2022-10-17T18:18:46.121Z,101725.41
2022-10-17T18:21:15.097Z,101725.39
2022-10-17T18:23:49.164Z,101723.16
2022-10-17T18:26:18.781Z,101724.30
2022-10-17T18:28:48.121Z,101721.70
2022-10-17T18:31:24.622Z,101720.66
2022-10-17T18:33:58.321Z,101725.20
2022-10-17T18:36:28.482Z,101723.60
2022-10-17T18:38:57.373Z,101718.90
2022-10-17T18:41:27.619Z,101722.16
2022-10-17T18:43:56.902Z,101721.58
2022-10-17T18:46:30.800Z,101723.48
2022-10-17T18:49:00.127Z,101728.29
2022-10-17T18:51:44.671Z,101730.21
2022-10-17T18:54:20.941Z,101726.08
2022-10-17T18:56:51.237Z,101725.31
2022-10-17T18:59:20.742Z,101722.59
2022-10-17T19:01:50.561Z,101726.44
2022-10-17T19:04:19.365Z,101725.50
2022-10-17T19:06:47.604Z,101727.11
2022-10-17T19:09:16.897Z,101730.23
2022-10-17T19:11:50.672Z,101729.23
2022-10-17T19:14:22.254Z,101729.04
2022-10-17T19:16:52.604Z,101727.35
2022-10-17T19:19:25.759Z,101724.92
2022-10-17T19:21:56.373Z,101721.27
2022-10-17T19:24:27.807Z,101717.58
2022-10-17T19:26:59.162Z,101713.94
2022-10-17T19:29:36.409Z,101718.84
2022-10-17T19:32:17.915Z,101724.40
2022-10-17T19:34:49.992Z,101725.18
2022-10-17T19:37:17.950Z,101726.16
2022-10-17T19:39:49.426Z,101723.71
2022-10-17T19:42:19.443Z,101723.01
2022-10-17T19:44:47.974Z,101719.20
2022-10-17T19:47:17.033Z,101719.45
2022-10-17T19:49:49.840Z,101721.29
2022-10-17T19:52:18.856Z,101721.58
2022-10-17T19:54:47.436Z,101722.71
2022-10-17T19:57:16.549Z,101723.14
2022-10-17T19:59:48.011Z,101722.94
2022-10-17T20:02:19.599Z,101721.70
2022-10-17T20:04:54.680Z,101726.29
2022-10-17T20:07:34.748Z,101738.07
2022-10-17T20:10:03.041Z,101731.77
2022-10-17T20:12:31.509Z,101734.83
2022-10-17T20:15:00.318Z,101738.41
2022-10-17T20:17:29.176Z,101744.23
2022-10-17T20:19:57.332Z,101746.20
2022-10-17T20:22:25.488Z,101746.80
2022-10-17T20:24:53.276Z,101756.33
2022-10-17T20:27:25.451Z,101759.07
2022-10-17T20:29:55.836Z,101760.99
2022-10-17T20:32:26.298Z,101762.30
2022-10-17T20:34:54.871Z,101759.34
2022-10-17T20:37:25.658Z,101756.02
2022-10-17T20:40:16.488Z,101758.77
2022-10-17T20:42:41.561Z,101760.23
2022-10-17T20:45:09.931Z,101759.93
2022-10-17T20:47:47.036Z,101755.45
2022-10-17T20:50:16.264Z,101757.58
2022-10-17T20:52:44.031Z,101759.92
2022-10-17T20:55:12.005Z,101758.55
2022-10-17T20:57:40.860Z,101753.90
2022-10-17T21:00:09.325Z,101751.05
2022-10-17T21:02:37.479Z,101750.22
2022-10-17T21:05:08.439Z,101763.39
2022-10-17T21:07:37.687Z,101767.11
2022-10-17T21:10:34.256Z,101766.50
2022-10-17T21:12:59.788Z,101764.13
2022-10-17T21:15:28.112Z,101761.14
2022-10-17T21:17:55.959Z,101757.12
2022-10-17T21:20:24.150Z,101758.30
2022-10-17T21:22:52.591Z,101757.48
2022-10-17T21:25:20.728Z,101759.93
2022-10-17T21:27:54.943Z,101753.52
2022-10-17T21:30:25.574Z,101755.23
2022-10-17T21:32:57.082Z,101764.30
2022-10-17T21:35:25.135Z,101766.33
2022-10-17T21:37:52.999Z,101764.36
2022-10-17T21:40:20.925Z,101770.66
2022-10-17T21:42:48.998Z,101768.40
2022-10-17T21:45:25.247Z,101770.29
2022-10-17T21:50:42.358Z,101770.25
2022-10-17T21:53:10.286Z,101773.77
2022-10-17T21:55:38.241Z,101777.70
2022-10-17T21:58:05.988Z,101778.80
2022-10-17T22:00:34.102Z,101778.77
2022-10-17T22:03:01.940Z,101781.08
2022-10-17T22:05:31.289Z,101778.07
2022-10-17T22:07:59.107Z,101781.54
2022-10-17T22:10:27.035Z,101780.21
2022-10-17T22:12:54.832Z,101776.91
2022-10-17T22:15:22.661Z,101775.34
2022-10-17T22:17:50.458Z,101773.66
2022-10-17T22:20:18.274Z,101767.58
2022-10-17T22:22:48.723Z,101771.02
2022-10-17T22:25:16.715Z,101774.95
2022-10-17T22:27:45.157Z,101770.45
2022-10-17T22:30:13.052Z,101766.02
2022-10-17T22:32:40.925Z,101765.24
2022-10-17T22:35:09.136Z,101762.80
2022-10-17T22:37:36.895Z,101762.96
2022-10-17T22:40:06.034Z,101763.93
2022-10-17T22:42:34.750Z,101763.55
2022-10-17T22:45:03.155Z,101761.51
2022-10-17T22:47:31.553Z,101765.04
2022-10-17T22:49:59.624Z,101759.63
2022-10-17T22:52:27.540Z,101759.64
2022-10-17T22:54:55.679Z,101762.86
2022-10-17T22:57:23.542Z,101760.29
2022-10-17T22:59:52.105Z,101762.42
2022-10-17T23:02:22.427Z,101757.27
2022-10-17T23:04:50.906Z,101763.34
2022-10-17T23:07:18.739Z,101760.36
2022-10-17T23:09:46.490Z,101762.79
2022-10-17T23:12:14.328Z,101759.67
2022-10-17T23:14:43.579Z,101766.65
2022-10-17T23:17:12.221Z,101764.84
2022-10-17T23:19:40.380Z,101760.78
2022-10-17T23:22:09.405Z,101761.27
2022-10-17T23:24:37.345Z,101758.90
2022-10-17T23:27:05.253Z,101755.95
2022-10-17T23:29:34.358Z,101755.41
2022-10-17T23:32:02.278Z,101766.06
2022-10-17T23:34:30.719Z,101761.11
2022-10-17T23:36:58.593Z,101761.50
2022-10-17T23:39:26.492Z,101751.02
2022-10-17T23:41:54.246Z,101746.38
2022-10-17T23:44:23.573Z,101748.71
2022-10-17T23:46:52.149Z,101756.07
2022-10-17T23:49:20.269Z,101750.71
2022-10-17T23:51:49.959Z,101754.07
2022-10-17T23:54:17.850Z,101751.41
2022-10-17T23:56:45.784Z,101746.10
2022-10-17T23:59:13.509Z,101753.80
